Time;durP1;ratioP1;P1;durP2;ratioP2;P2;SDS_P1;SDS_P2;PMS_P1;PMS_P2;Temp;Humidity;BMP_temperature;BMP_pressure;BME280_temperature;BME280_humidity;BME280_pressure;Samples;Min_cycle;Max_cycle;Signal;HPM_P1;HPM_P2
2023/08/30 00:01:48;;;;;;;6.03;3.30;;;15.80;99.90;;;15.65;74.64;100171.81;5095870;28;20224;-73
2023/08/30 00:04:22;;;;;;;4.23;3.40;;;15.90;99.90;;;15.66;73.31;100168.06;5096409;28;20252;-73
2023/08/30 00:06:53;;;;;;;6.60;3.47;;;15.90;99.90;;;15.57;74.18;100177.41;5095776;28;20247;-73
2023/08/30 00:09:27;;;;;;;4.97;3.50;;;15.70;99.90;;;15.51;74.07;100180.13;5095678;28;20185;-73
2023/08/30 00:11:59;;;;;;;5.67;3.63;;;15.70;99.90;;;15.49;74.36;100174.06;5095664;28;20189;-73
2023/08/30 00:14:32;;;;;;;7.00;3.47;;;15.70;99.90;;;15.55;74.84;100176.78;5095218;28;20221;-73
2023/08/30 00:17:04;;;;;;;3.67;3.00;;;15.90;99.90;;;15.48;74.68;100178.63;5095575;28;20280;-73
2023/08/30 00:19:36;;;;;;;6.40;3.57;;;15.70;99.90;;;15.45;73.91;100180.88;5095624;28;20298;-73
2023/08/30 00:22:09;;;;;;;3.93;3.43;;;15.70;99.90;;;15.36;75.19;100176.72;5095238;28;20673;-74
2023/08/30 00:24:41;;;;;;;4.57;3.50;;;15.50;99.90;;;15.31;75.14;100177.31;5095456;28;20589;-74
2023/08/30 00:27:13;;;;;;;3.70;3.10;;;15.50;99.90;;;15.32;74.07;100179.00;5095540;28;20193;-73
2023/08/30 00:29:46;;;;;;;4.73;3.00;;;15.50;99.90;;;15.25;73.78;100180.84;5095806;28;20264;-73
2023/08/30 00:32:18;;;;;;;4.10;3.10;;;15.40;99.90;;;15.21;74.58;100171.50;5095510;28;20189;-74
2023/08/30 00:34:52;;;;;;;5.30;3.30;;;15.40;99.90;;;15.21;74.50;100179.59;5094808;28;20315;-74
2023/08/30 00:37:24;;;;;;;4.57;3.43;;;15.50;99.90;;;15.17;73.92;100175.66;5095153;28;20283;-74
2023/08/30 00:39:56;;;;;;;4.17;3.40;;;15.40;99.90;;;15.16;74.14;100171.28;5094748;28;20690;-74
2023/08/30 00:42:28;;;;;;;4.23;3.50;;;15.30;99.90;;;15.10;73.71;100161.34;5095023;28;20279;-74
2023/08/30 00:45:02;;;;;;;4.63;3.70;;;15.30;99.90;;;15.07;73.48;100164.41;5095372;28;20641;-74
2023/08/30 00:47:34;;;;;;;5.13;3.30;;;15.30;99.90;;;15.07;73.30;100167.09;5094926;28;20280;-74
2023/08/30 00:50:07;;;;;;;5.13;3.70;;;15.40;99.90;;;14.98;73.78;100166.47;5094903;28;20185;-75
2023/08/30 00:52:39;;;;;;;3.67;2.93;;;15.20;99.90;;;15.01;73.59;100167.91;5094568;28;20221;-74
2023/08/30 00:55:12;;;;;;;3.97;2.80;;;15.20;99.90;;;14.96;73.85;100167.72;5094636;28;20353;-74
2023/08/30 00:57:44;;;;;;;5.93;3.17;;;15.10;99.90;;;14.97;73.83;100166.66;5094751;28;20185;-74
2023/08/30 01:00:20;;;;;;;5.63;3.30;;;15.20;99.90;;;14.98;73.54;100165.63;5094670;28;20211;-74
2023/08/30 01:02:52;;;;;;;6.43;3.47;;;15.20;99.90;;;14.92;74.67;100179.94;5094658;28;20193;-74
2023/08/30 01:05:25;;;;;;;5.47;3.40;;;15.20;99.90;;;14.91;75.42;100180.94;5094330;28;20653;-74
2023/08/30 01:07:57;;;;;;;4.50;3.47;;;15.10;99.90;;;14.91;75.36;100164.78;5094376;28;20633;-74
2023/08/30 01:10:48;;;;;;;3.97;3.00;;;15.20;99.90;;;14.87;75.97;100169.75;5094213;28;20192;-74
2023/08/30 01:13:24;;;;;;;3.90;3.23;;;15.10;99.90;;;14.89;75.05;100162.31;5094086;28;20737;-74
2023/08/30 01:15:59;;;;;;;4.70;3.20;;;15.20;99.90;;;14.87;74.72;100169.75;5094450;28;20228;-74
2023/08/30 01:18:37;;;;;;;3.40;3.10;;;15.10;99.90;;;14.93;74.48;100163.53;5094309;28;20291;-74
2023/08/30 01:21:22;;;;;;;4.93;3.20;;;15.20;99.90;;;14.93;74.26;100165.44;5094255;28;20227;-74
2023/08/30 01:24:01;;;;;;;3.53;2.90;;;15.30;99.90;;;14.80;74.74;100168.88;5094251;28;20650;-74
2023/08/30 01:26:46;;;;;;;5.03;3.00;;;15.10;99.90;;;14.68;74.34;100165.94;5094232;28;20196;-74
2023/08/30 01:29:22;;;;;;;7.20;3.73;;;14.90;99.90;;;14.55;75.43;100162.38;5094443;28;20189;-74
2023/08/30 01:31:55;;;;;;;5.73;3.33;;;14.80;99.90;;;14.48;74.86;100156.94;5094190;28;20279;-74
2023/08/30 01:34:28;;;;;;;4.37;3.13;;;14.70;99.90;;;14.43;73.88;100159.41;5094063;28;20267;-74
2023/08/30 01:37:00;;;;;;;3.50;3.20;;;14.70;99.90;;;14.47;74.43;100152.59;5094341;28;20203;-74
2023/08/30 01:39:34;;;;;;;4.87;3.50;;;14.70;99.90;;;14.48;74.49;100156.94;5093984;28;20300;-74
2023/08/30 01:42:07;;;;;;;3.93;3.47;;;14.80;99.90;;;14.40;74.69;100156.25;5094044;28;20276;-74
2023/08/30 01:44:44;;;;;;;4.13;2.90;;;14.60;99.90;;;14.32;75.63;100149.16;5093741;28;20256;-74
2023/08/30 01:47:17;;;;;;;3.97;3.47;;;14.60;99.90;;;14.39;75.03;100155.44;5093652;28;20225;-74
2023/08/30 01:49:51;;;;;;;4.53;3.10;;;14.70;99.90;;;14.35;74.88;100145.28;5093554;28;20642;-74
2023/08/30 01:52:24;;;;;;;5.50;3.10;;;14.60;99.90;;;14.31;74.46;100142.13;5093819;28;20283;-74
2023/08/30 01:54:58;;;;;;;3.73;3.20;;;14.50;99.90;;;14.31;74.86;100142.13;5092711;28;20231;-74
2023/08/30 01:57:29;;;;;;;4.67;3.23;;;14.50;99.90;;;14.23;75.02;100139.56;5093491;28;20638;-74
2023/08/30 02:00:03;;;;;;;6.40;3.50;;;14.50;99.90;;;14.21;75.15;100145.16;5093931;28;20216;-74
2023/08/30 02:02:36;;;;;;;3.87;3.40;;;14.60;99.90;;;14.16;75.05;100141.41;5093686;28;20193;-74
2023/08/30 02:05:09;;;;;;;6.53;3.93;;;14.50;99.90;;;14.16;75.46;100144.09;5093298;28;20232;-74
2023/08/30 02:07:47;;;;;;;4.37;3.47;;;14.40;99.90;;;14.08;75.75;100144.22;5093348;28;20564;-74
2023/08/30 02:10:23;;;;;;;5.47;3.70;;;14.50;99.90;;;14.09;75.95;100137.84;5093629;28;20192;-74
2023/08/30 02:13:00;;;;;;;4.77;3.87;;;14.40;99.90;;;14.09;75.95;100138.66;5093606;28;20211;-74
2023/08/30 02:15:37;;;;;;;4.47;3.70;;;14.40;99.90;;;14.11;75.29;100139.28;5093564;28;20224;-74
2023/08/30 02:18:10;;;;;;;3.67;3.30;;;14.40;99.90;;;14.13;75.24;100136.41;5093212;28;20295;-74
2023/08/30 02:20:43;;;;;;;4.43;3.97;;;14.40;99.90;;;13.97;74.67;100136.72;5093440;28;20261;-74
2023/08/30 02:23:14;;;;;;;3.90;3.57;;;14.30;99.90;;;14.02;74.67;100136.94;5093512;28;20346;-74
2023/08/30 02:25:47;;;;;;;4.43;3.60;;;14.30;99.90;;;13.90;75.04;100133.16;5093107;28;20205;-74
2023/08/30 02:28:18;;;;;;;4.70;3.60;;;14.20;99.90;;;13.84;75.79;100133.91;5093147;28;20639;-74
2023/08/30 02:30:53;;;;;;;4.43;3.50;;;14.00;99.90;;;13.77;76.38;100131.19;5093113;28;20599;-74
2023/08/30 02:33:25;;;;;;;5.10;3.90;;;14.10;99.90;;;13.77;76.40;100135.75;5093305;28;20224;-74
2023/08/30 02:35:57;;;;;;;4.93;3.87;;;14.00;99.90;;;13.70;75.95;100128.44;5093077;28;20185;-73
2023/08/30 02:38:29;;;;;;;4.13;3.57;;;14.00;99.90;;;13.69;76.75;100137.56;5093401;28;20277;-73
2023/08/30 02:41:01;;;;;;;4.80;3.13;;;13.90;99.90;;;13.69;76.09;100132.19;5093289;28;20299;-73
2023/08/30 02:43:33;;;;;;;4.43;3.63;;;14.00;99.90;;;13.71;76.25;100140.88;5093193;28;20232;-73
2023/08/30 02:46:06;;;;;;;3.80;3.43;;;14.10;99.90;;;13.76;75.73;100137.63;5093325;28;20285;-73
2023/08/30 02:48:38;;;;;;;3.37;3.07;;;14.30;99.90;;;13.77;75.80;100135.75;5092963;28;20528;-73
2023/08/30 02:51:10;;;;;;;4.70;3.23;;;14.10;99.90;;;13.72;76.20;100130.94;5093512;28;20193;-73
2023/08/30 02:53:41;;;;;;;4.13;3.50;;;14.10;99.90;;;13.69;75.61;100124.09;5092898;28;20263;-73
2023/08/30 02:56:13;;;;;;;4.10;3.33;;;14.10;99.90;;;13.61;76.30;100132.31;5093183;28;20628;-73
2023/08/30 02:58:45;;;;;;;3.83;3.30;;;14.00;99.90;;;13.60;76.79;100130.63;5093208;28;20211;-73
2023/08/30 03:01:19;;;;;;;6.30;3.60;;;13.90;99.90;;;13.61;77.01;100129.63;5092785;28;20678;-73
2023/08/30 03:03:50;;;;;;;4.27;3.87;;;13.90;99.90;;;13.63;76.59;100132.13;5093325;28;20224;-73
2023/08/30 03:06:22;;;;;;;5.43;3.90;;;14.00;99.90;;;13.53;76.93;100135.13;5096049;28;20604;-73
2023/08/30 03:08:56;;;;;;;5.23;3.93;;;13.90;99.90;;;13.61;76.84;100131.47;5096799;28;20661;-73
2023/08/30 03:11:28;;;;;;;4.10;3.80;;;13.90;99.90;;;13.55;77.22;100135.78;5096885;28;20284;-73
2023/08/30 03:13:59;;;;;;;4.30;3.90;;;13.90;99.90;;;13.50;76.85;100135.53;5096384;28;20322;-73
2023/08/30 03:16:33;;;;;;;4.50;3.70;;;13.80;99.90;;;13.47;76.72;100141.28;5096711;28;20288;-73
2023/08/30 03:19:06;;;;;;;4.17;3.77;;;13.90;99.90;;;13.44;77.54;100141.69;5096376;28;20536;-73
2023/08/30 03:21:38;;;;;;;3.90;3.60;;;13.80;99.90;;;13.30;77.40;100137.19;5096628;28;20193;-73
2023/08/30 03:24:10;;;;;;;4.63;4.00;;;13.60;99.90;;;13.27;77.72;100137.59;5096558;28;20319;-73
2023/08/30 03:26:43;;;;;;;4.23;3.57;;;13.50;99.90;;;13.24;78.27;100127.22;5096571;28;20284;-73
2023/08/30 03:29:14;;;;;;;4.63;3.67;;;13.50;99.90;;;13.28;78.03;100124.97;5096508;28;20250;-73
2023/08/30 03:31:48;;;;;;;4.70;3.40;;;13.70;99.90;;;13.23;77.31;100125.56;5096471;28;20216;-73
2023/08/30 03:34:20;;;;;;;3.67;3.37;;;13.60;99.90;;;13.27;77.59;100126.84;5096576;28;20229;-73
2023/08/30 03:36:54;;;;;;;4.13;3.63;;;13.60;99.90;;;13.16;76.71;100128.19;5096372;28;20272;-73
2023/08/30 03:39:25;;;;;;;4.50;3.97;;;13.60;99.90;;;13.16;77.88;100130.88;5096228;28;20195;-73
2023/08/30 03:41:57;;;;;;;3.73;3.43;;;13.40;99.90;;;13.20;77.33;100136.69;5096268;28;20185;-73
2023/08/30 03:44:29;;;;;;;4.53;3.73;;;13.60;99.90;;;13.09;78.21;100134.50;5096358;28;20306;-73
2023/08/30 03:47:02;;;;;;;5.80;3.60;;;13.50;99.90;;;13.11;78.50;100119.03;5096150;28;20285;-73
2023/08/30 03:49:34;;;;;;;4.57;3.90;;;13.50;99.90;;;13.12;77.37;100118.81;5096095;28;20185;-73
2023/08/30 03:52:07;;;;;;;4.13;3.67;;;13.60;99.90;;;13.06;78.10;100113.34;5096065;28;20190;-73
2023/08/30 03:54:39;;;;;;;4.13;3.73;;;13.50;99.90;;;13.02;78.45;100114.75;5096014;28;20236;-73
2023/08/30 03:57:11;;;;;;;4.50;4.10;;;13.40;99.90;;;12.96;78.03;100118.22;5095965;28;20189;-73
2023/08/30 03:59:42;;;;;;;3.90;3.50;;;13.20;99.90;;;12.99;78.37;100113.28;5095824;28;20240;-73
2023/08/30 04:02:16;;;;;;;5.70;4.13;;;13.30;99.90;;;12.96;78.63;100099.41;5095563;28;20701;-73
2023/08/30 04:04:49;;;;;;;3.90;3.60;;;13.30;99.90;;;12.96;79.04;100099.41;5095763;28;20316;-73
2023/08/30 04:07:21;;;;;;;4.90;3.97;;;13.40;99.90;;;13.02;78.31;100102.16;5095772;28;20265;-73
2023/08/30 04:09:53;;;;;;;5.20;4.20;;;13.40;99.90;;;13.03;77.00;100101.16;5095423;28;20655;-73
2023/08/30 04:12:25;;;;;;;5.70;4.10;;;13.50;99.90;;;13.00;77.80;100098.00;5095909;28;20224;-73
2023/08/30 04:14:57;;;;;;;5.50;4.17;;;13.40;99.90;;;12.90;78.35;100097.50;5095536;28;20311;-73
2023/08/30 04:17:30;;;;;;;8.63;4.40;;;13.30;99.90;;;12.85;79.06;100087.31;5095025;28;20277;-73
2023/08/30 04:20:02;;;;;;;5.27;4.73;;;13.20;99.90;;;12.89;79.15;100087.75;5095437;28;20213;-73
2023/08/30 04:22:36;;;;;;;5.43;4.20;;;13.30;99.90;;;12.91;79.48;100074.97;5095194;28;20601;-73
2023/08/30 04:25:09;;;;;;;7.00;4.60;;;13.40;99.90;;;12.93;78.44;100080.97;5095342;28;20232;-73
2023/08/30 04:27:41;;;;;;;5.43;4.47;;;13.30;99.90;;;12.79;79.92;100097.97;5095342;28;20224;-73
2023/08/30 04:30:16;;;;;;;6.63;5.30;;;13.20;99.90;;;12.73;79.95;100093.38;5095276;28;20190;-73
2023/08/30 04:32:49;;;;;;;6.20;4.63;;;13.10;99.90;;;12.78;80.01;100099.84;5095178;28;20188;-73
2023/08/30 04:35:21;;;;;;;7.17;4.53;;;13.10;99.90;;;12.81;80.39;100085.22;5095120;28;20282;-73
2023/08/30 04:37:53;;;;;;;9.83;5.07;;;13.20;99.90;;;12.77;80.05;100081.25;5095087;28;20534;-74
2023/08/30 04:40:25;;;;;;;8.50;4.83;;;13.10;99.90;;;12.79;80.39;100085.38;5094753;28;20248;-73
2023/08/30 04:42:58;;;;;;;7.50;4.70;;;13.20;99.90;;;12.78;81.02;100082.88;5095057;28;20235;-73
2023/08/30 04:45:30;;;;;;;4.67;4.27;;;13.20;99.90;;;12.80;80.50;100078.16;5094941;28;20683;-73
2023/08/30 04:48:03;;;;;;;5.73;4.80;;;13.20;99.90;;;12.83;80.83;100085.84;5094937;28;20280;-74
2023/08/30 04:50:35;;;;;;;10.83;4.73;;;13.20;99.90;;;12.80;81.25;100081.69;5094893;28;20189;-74
2023/08/30 04:53:06;;;;;;;7.77;5.37;;;13.30;99.90;;;12.77;81.50;100082.06;5094803;28;20195;-74
2023/08/30 04:55:38;;;;;;;6.33;5.00;;;13.10;99.90;;;12.76;81.72;100075.03;5094442;28;20239;-74
2023/08/30 04:58:10;;;;;;;7.57;5.03;;;13.20;99.90;;;12.77;82.28;100078.56;5094425;28;20634;-74
2023/08/30 05:00:42;;;;;;;5.73;5.13;;;13.20;99.90;;;12.70;82.42;100091.91;5094320;28;20621;-74
2023/08/30 05:03:16;;;;;;;5.77;5.20;;;13.20;99.90;;;12.77;82.74;100094.66;5094634;28;20276;-74
2023/08/30 05:05:48;;;;;;;7.80;5.20;;;13.20;99.90;;;12.75;81.79;100099.38;5094341;28;20632;-74
2023/08/30 05:08:20;;;;;;;7.77;5.33;;;13.20;99.90;;;12.81;82.55;100093.28;5094513;28;20549;-74
2023/08/30 05:10:54;;;;;;;6.00;5.40;;;13.20;99.90;;;12.75;82.95;100099.38;5094458;28;20585;-74
2023/08/30 05:13:25;;;;;;;8.23;5.50;;;13.10;99.90;;;12.78;82.55;100093.63;5094443;28;20304;-74
2023/08/30 05:15:57;;;;;;;7.57;5.63;;;13.20;99.90;;;12.80;83.07;100097.81;5094481;28;20246;-74
2023/08/30 05:18:30;;;;;;;6.57;5.87;;;13.30;99.90;;;12.71;83.37;100102.44;5094133;28;20588;-74
2023/08/30 05:21:03;;;;;;;7.03;5.87;;;13.20;99.90;;;12.80;83.83;100105.03;5094322;28;20208;-75
2023/08/30 05:23:35;;;;;;;11.20;6.10;;;13.20;99.90;;;12.84;84.15;100096.41;5094265;28;20224;-74
2023/08/30 05:26:09;;;;;;;11.40;5.87;;;13.30;99.90;;;12.90;83.19;100102.88;5093779;28;20184;-74
2023/08/30 05:28:41;;;;;;;7.13;4.83;;;13.30;99.90;;;12.92;83.85;100098.13;5093401;28;20272;-74
2023/08/30 05:31:13;;;;;;;7.27;5.20;;;13.40;99.90;;;12.95;83.60;100097.72;5094220;28;20216;-74
2023/08/30 05:33:46;;;;;;;9.20;5.70;;;13.50;99.90;;;12.98;83.83;100094.69;5094076;28;20225;-64
2023/08/30 05:36:19;;;;;;;6.13;5.53;;;13.40;99.90;;;13.00;84.07;100095.31;5093867;28;20189;-75
2023/08/30 05:38:51;;;;;;;6.30;5.70;;;13.50;99.90;;;13.03;84.52;100093.09;5093775;28;20639;-75
2023/08/30 05:41:23;;;;;;;6.70;5.73;;;13.60;99.90;;;13.04;84.40;100094.75;5093985;28;20213;-74
2023/08/30 05:43:54;;;;;;;6.47;5.87;;;13.60;99.90;;;13.05;84.55;100088.34;5093598;28;20231;-74
2023/08/30 05:46:26;;;;;;;6.80;6.07;;;13.50;99.90;;;13.08;84.43;100084.47;5093989;28;20189;-75
2023/08/30 05:49:00;;;;;;;6.77;5.90;;;13.70;99.90;;;13.10;84.50;100087.81;5093616;28;20558;-74
2023/08/30 05:51:32;;;;;;;7.83;6.50;;;13.80;99.90;;;13.09;84.17;100083.44;5093902;28;20246;-74
2023/08/30 05:54:04;;;;;;;6.93;6.23;;;13.60;99.90;;;13.03;84.91;100086.88;5093482;28;20319;-74
2023/08/30 05:56:36;;;;;;;8.60;6.03;;;13.60;99.90;;;13.02;85.53;100085.19;5093821;28;20284;-74
2023/08/30 05:59:07;;;;;;;8.73;6.73;;;13.50;99.90;;;13.03;85.22;100082.34;5093763;28;20192;-74
2023/08/30 06:01:39;;;;;;;7.27;6.57;;;13.50;99.90;;;13.05;85.33;100072.22;5093620;28;20228;-74
2023/08/30 06:04:13;;;;;;;8.53;7.10;;;13.60;99.90;;;13.01;85.83;100067.44;5093686;28;20221;-74
2023/08/30 06:06:45;;;;;;;7.40;6.33;;;13.60;99.90;;;13.09;85.35;100064.63;5093395;28;20554;-74
2023/08/30 06:09:18;;;;;;;7.23;6.53;;;13.70;99.90;;;13.14;85.15;100072.97;5093671;28;20276;-74
2023/08/30 06:11:50;;;;;;;7.50;6.60;;;13.70;99.90;;;13.21;85.29;100057.72;5093654;28;20208;-74
2023/08/30 06:14:22;;;;;;;12.37;6.30;;;13.90;99.90;;;13.26;85.54;100055.28;5093539;28;20312;-74
2023/08/30 06:16:54;;;;;;;6.77;6.10;;;13.80;99.90;;;13.31;85.10;100058.22;5093653;28;20276;-74
2023/08/30 06:19:27;;;;;;;7.67;6.87;;;13.90;99.90;;;13.35;85.85;100064.88;5093260;28;20651;-74
2023/08/30 06:21:59;;;;;;;7.07;6.37;;;14.00;99.90;;;13.43;86.03;100061.19;5093477;28;20219;-74
2023/08/30 06:24:31;;;;;;;7.40;6.10;;;14.10;99.90;;;13.47;85.21;100062.47;5093488;28;20225;-74
2023/08/30 06:27:03;;;;;;;7.30;6.50;;;14.00;99.90;;;13.52;83.88;100060.88;5093475;28;20197;-74
2023/08/30 06:29:35;;;;;;;7.27;6.53;;;14.20;99.90;;;13.65;84.92;100065.50;5093480;28;20189;-74
2023/08/30 06:32:08;;;;;;;8.20;6.40;;;14.20;99.90;;;13.71;84.52;100060.16;5093130;28;20185;-74
2023/08/30 06:34:41;;;;;;;9.40;6.67;;;14.30;99.90;;;13.80;84.36;100060.03;5093381;28;20256;-74
2023/08/30 06:37:12;;;;;;;8.07;5.93;;;14.50;99.90;;;13.85;83.44;100054.88;5093628;28;20189;-74
2023/08/30 06:39:44;;;;;;;11.60;5.47;;;14.50;99.90;;;13.89;83.33;100056.13;5094041;28;20189;-74
2023/08/30 06:42:16;;;;;;;7.40;5.90;;;14.50;99.90;;;13.96;82.89;100059.69;5097381;28;20212;-74
2023/08/30 06:44:48;;;;;;;7.37;5.93;;;14.70;99.90;;;14.03;82.32;100057.88;5097300;28;20225;-75
2023/08/30 06:47:20;;;;;;;6.93;5.97;;;14.60;99.90;;;14.09;82.07;100057.06;5097326;28;20276;-74
2023/08/30 06:49:54;;;;;;;8.43;6.27;;;14.70;99.90;;;14.12;82.18;100059.38;5097294;28;20189;-74
2023/08/30 06:52:26;;;;;;;6.13;5.47;;;14.80;99.90;;;14.18;81.61;100062.09;5096912;28;20224;-74
2023/08/30 06:54:58;;;;;;;6.77;5.50;;;14.90;99.90;;;14.21;81.82;100058.19;5096821;28;20672;-74
2023/08/30 06:57:29;;;;;;;8.80;5.97;;;14.80;99.90;;;14.28;82.16;100045.56;5097090;28;20205;-74
2023/08/30 07:00:07;;;;;;;6.07;5.47;;;14.90;99.90;;;14.30;82.31;100050.75;5097109;28;20246;-74
2023/08/30 07:02:38;;;;;;;6.30;5.57;;;14.90;99.90;;;14.33;81.98;100053.03;5096617;28;20717;-74
2023/08/30 07:05:13;;;;;;;6.27;5.67;;;15.10;99.90;;;14.40;81.12;100051.25;5096867;28;20228;-74
2023/08/30 07:07:45;;;;;;;7.17;5.20;;;15.10;99.90;;;14.41;81.30;100045.66;5096939;28;20192;-74
2023/08/30 07:10:17;;;;;;;6.50;5.90;;;15.10;99.90;;;14.44;80.95;100050.66;5096895;28;20195;-74
2023/08/30 07:12:49;;;;;;;6.90;5.43;;;15.10;99.90;;;14.48;81.10;100046.53;5096846;28;20189;-74
2023/08/30 07:15:21;;;;;;;6.70;5.80;;;15.10;99.90;;;14.51;79.85;100048.81;5096811;28;20316;-74
2023/08/30 07:17:53;;;;;;;7.93;6.23;;;15.10;99.90;;;14.54;80.25;100045.69;5096804;28;20224;-74
2023/08/30 07:20:29;;;;;;;8.77;5.93;;;15.10;99.90;;;14.59;80.16;100053.16;5096651;28;20184;-74
2023/08/30 07:23:01;;;;;;;7.73;6.27;;;15.20;99.90;;;14.57;79.05;100056.06;5096511;28;20308;-74
2023/08/30 07:25:36;;;;;;;6.60;5.70;;;15.30;99.90;;;14.58;79.89;100052.34;5096614;28;20283;-74
2023/08/30 07:28:09;;;;;;;10.10;6.30;;;15.30;99.90;;;14.61;80.03;100046.56;5096572;28;20291;-74
2023/08/30 07:30:42;;;;;;;6.73;5.50;;;15.20;99.90;;;14.62;80.81;100047.38;5096231;28;20643;-74
2023/08/30 07:33:13;;;;;;;7.03;6.00;;;15.20;99.90;;;14.64;81.78;100045.31;5096439;28;20216;-74
2023/08/30 07:35:47;;;;;;;7.00;6.20;;;15.20;99.90;;;14.67;81.23;100045.72;5096428;28;20204;-74
2023/08/30 07:38:18;;;;;;;6.77;6.13;;;15.40;99.90;;;14.70;81.14;100044.50;5096336;28;20272;-74
2023/08/30 07:40:50;;;;;;;8.17;7.10;;;15.40;99.90;;;14.71;80.37;100047.00;5096342;28;20185;-74
2023/08/30 07:43:22;;;;;;;6.37;5.77;;;15.40;99.90;;;14.78;80.54;100047.00;5096347;28;20260;-74
2023/08/30 07:45:54;;;;;;;6.90;5.07;;;15.50;99.90;;;14.84;80.89;100046.19;5096206;28;20280;-74
2023/08/30 07:48:26;;;;;;;7.07;6.47;;;15.40;99.90;;;14.88;80.88;100043.91;5096173;28;20681;-74
2023/08/30 07:50:59;;;;;;;8.27;7.27;;;15.50;99.90;;;14.92;79.25;100050.56;5095665;28;20354;-74
2023/08/30 07:53:32;;;;;;;7.90;6.50;;;15.50;99.90;;;14.99;79.38;100046.00;5095552;28;20225;-74
2023/08/30 07:56:04;;;;;;;7.47;6.67;;;15.60;99.90;;;15.04;79.18;100049.72;5096028;28;20283;-74
2023/08/30 07:58:36;;;;;;;6.63;5.93;;;15.70;99.90;;;15.09;80.36;100044.56;5095912;28;20199;-75
2023/08/30 08:01:08;;;;;;;8.13;7.03;;;15.70;99.90;;;15.14;79.33;100052.00;5096194;28;20193;-75
2023/08/30 08:03:42;;;;;;;8.97;7.03;;;15.80;99.90;;;15.21;79.59;100042.06;5096078;28;20233;-74
2023/08/30 08:06:36;;;;;;;7.83;7.03;;;15.80;99.90;;;15.27;80.02;100040.44;5096282;28;20200;-74
2023/08/30 08:09:09;;;;;;;7.50;6.80;;;15.90;99.90;;;15.31;79.87;100037.09;5095796;28;20529;-76
2023/08/30 08:11:43;;;;;;;8.17;7.37;;;15.90;99.90;;;15.39;79.30;100042.28;5095774;28;20206;-76
2023/08/30 08:14:15;;;;;;;7.17;6.50;;;16.00;99.90;;;15.46;78.74;100040.41;5095294;28;20672;-75
2023/08/30 08:16:47;;;;;;;8.50;6.37;;;16.10;99.90;;;15.52;79.29;100042.28;5095630;28;20219;-74
2023/08/30 08:19:20;;;;;;;10.97;7.70;;;16.20;99.90;;;15.54;79.44;100042.94;5095535;28;20189;-74
2023/08/30 08:21:57;;;;;;;9.20;6.70;;;16.20;99.90;;;15.63;79.37;100038.97;5095485;28;20279;-75
2023/08/30 08:24:29;;;;;;;8.10;7.17;;;16.30;99.90;;;15.71;79.02;100041.47;5095703;28;20229;-75
2023/08/30 08:27:02;;;;;;;10.37;8.37;;;16.30;99.90;;;15.78;76.64;100044.16;5095127;28;20642;-75
2023/08/30 08:29:34;;;;;;;9.27;7.47;;;16.50;99.90;;;15.81;77.99;100043.72;5095105;28;20643;-75
2023/08/30 08:32:06;;;;;;;9.23;7.87;;;16.50;99.90;;;15.95;75.95;100042.66;5095329;28;20193;-75
2023/08/30 08:34:38;;;;;;;10.63;9.20;;;16.50;99.90;;;16.04;76.36;100046.75;5095186;28;20289;-74
2023/08/30 08:37:13;;;;;;;14.23;9.47;;;16.70;99.90;;;16.07;76.16;100042.81;5095159;28;20185;-75
2023/08/30 08:39:46;;;;;;;9.90;7.87;;;16.80;99.90;;;16.10;78.11;100037.81;5094876;28;20635;-75
2023/08/30 08:42:25;;;;;;;9.17;8.23;;;16.70;99.90;;;16.16;75.53;100036.94;5095076;28;20589;-75
2023/08/30 08:45:00;;;;;;;9.77;8.77;;;16.80;99.90;;;16.24;74.79;100033.19;5095074;28;20263;-76
2023/08/30 08:47:35;;;;;;;10.13;8.67;;;16.90;99.90;;;16.32;74.72;100034.81;5094943;28;20200;-75
2023/08/30 08:50:09;;;;;;;10.80;9.50;;;17.00;99.90;;;16.43;73.41;100040.38;5095293;28;20193;-75
2023/08/30 08:52:42;;;;;;;10.87;8.90;;;17.00;99.90;;;16.47;73.98;100033.50;5095221;28;20224;-74
2023/08/30 08:55:36;;;;;;;8.57;7.73;;;17.00;99.90;;;16.51;75.95;100032.03;5096574;28;20220;-73
2023/08/30 08:58:10;;;;;;;9.87;8.40;;;17.10;99.90;;;16.55;75.93;100035.97;5095075;28;20252;-74
2023/08/30 09:00:42;;;;;;;12.13;8.60;;;17.20;99.90;;;16.67;72.84;100028.03;5093367;28;20635;-74
2023/08/30 09:03:15;;;;;;;10.70;8.57;;;17.30;99.90;;;16.73;73.86;100028.00;5093729;28;20209;-74
2023/08/30 09:05:51;;;;;;;8.50;7.60;;;17.40;99.90;;;16.80;74.88;100032.53;5094231;28;20665;-75
2023/08/30 09:08:25;;;;;;;9.43;8.43;;;17.40;99.90;;;16.93;73.41;100027.03;5094655;28;20271;-75
2023/08/30 09:10:59;;;;;;;12.37;8.80;;;17.50;99.90;;;16.98;73.38;100029.91;5094614;28;20196;-75
2023/08/30 09:13:32;;;;;;;11.07;8.87;;;17.60;99.90;;;17.05;73.90;100025.28;5094485;28;20231;-74
2023/08/30 09:16:11;;;;;;;9.33;8.40;;;17.70;99.90;;;17.26;70.82;100030.28;5094556;28;20277;-74
2023/08/30 09:18:45;;;;;;;12.73;10.37;;;17.90;99.90;;;17.31;69.27;100025.06;5094443;28;20189;-75
2023/08/30 09:21:35;;;;;;;9.83;8.83;;;17.90;99.90;;;17.36;70.50;100033.34;5094355;28;20212;-74
2023/08/30 09:24:09;;;;;;;11.47;9.67;;;17.90;99.90;;;17.42;68.84;100023.50;5093838;28;20751;-76
2023/08/30 09:26:51;;;;;;;11.57;9.70;;;18.00;99.90;;;17.53;68.68;100033.63;5094311;28;20193;-75
2023/08/30 09:29:24;;;;;;;10.43;8.70;;;18.00;99.90;;;17.58;70.39;100026.50;5094268;28;20197;-75
2023/08/30 09:31:58;;;;;;;11.40;9.33;;;18.20;99.90;;;17.66;69.31;100025.41;5094261;28;20272;-74
2023/08/30 09:34:30;;;;;;;10.53;9.43;;;18.20;99.90;;;17.71;68.22;100020.97;5094270;28;20273;-75
2023/08/30 09:37:02;;;;;;;12.13;10.93;;;18.30;99.90;;;17.77;67.86;100023.84;5094088;28;20199;-75
2023/08/30 09:39:48;;;;;;;13.83;11.90;;;18.30;99.90;;;17.84;66.90;100019.19;5094017;28;20669;-75
2023/08/30 09:42:21;;;;;;;13.60;9.90;;;18.40;99.80;;;17.96;67.89;100017.38;5094813;28;20272;-65
2023/08/30 09:44:53;;;;;;;11.20;9.63;;;18.50;99.90;;;17.95;69.38;100021.13;5093864;28;20301;-74
2023/08/30 09:47:30;;;;;;;12.47;10.13;;;18.50;99.90;;;17.97;69.25;100016.31;5093899;28;20258;-74
2023/08/30 09:50:05;;;;;;;8.90;7.87;;;18.50;99.90;;;18.06;69.00;100014.97;5093889;28;20200;-74
2023/08/30 09:52:39;;;;;;;11.67;10.47;;;18.60;99.90;;;18.12;67.56;100022.16;5093922;28;20291;-74
2023/08/30 09:55:13;;;;;;;13.30;11.97;;;18.70;99.90;;;18.10;66.05;100016.16;5093769;28;20270;-74
2023/08/30 09:57:49;;;;;;;15.57;11.90;;;18.70;99.20;;;18.13;66.89;100023.84;5094638;28;20214;-74
2023/08/30 10:00:21;;;;;;;17.37;13.20;;;18.60;99.50;;;18.17;65.77;100020.47;5093995;28;20227;-74
2023/08/30 10:02:55;;;;;;;12.80;11.37;;;18.70;99.10;;;18.27;66.53;100014.50;5093676;28;20217;-74
2023/08/30 10:05:47;;;;;;;13.47;11.13;;;18.80;99.40;;;18.40;66.97;100019.75;5093909;28;20549;-74
2023/08/30 10:08:21;;;;;;;12.17;9.23;;;18.90;99.70;;;18.45;67.60;100009.06;5093355;28;20330;-74
2023/08/30 10:10:55;;;;;;;11.43;10.33;;;19.10;99.90;;;18.54;66.04;100007.69;5093348;28;20185;-74
2023/08/30 10:13:27;;;;;;;12.50;10.27;;;19.10;99.10;;;18.64;66.94;100010.69;5093549;28;20316;-74
2023/08/30 10:16:06;;;;;;;12.67;10.27;;;19.20;99.40;;;18.75;64.95;100014.50;5093052;28;20185;-74
2023/08/30 10:18:41;;;;;;;11.33;10.23;;;19.30;98.50;;;18.77;64.44;100014.28;5093830;28;20196;-74
2023/08/30 10:21:24;;;;;;;11.77;10.03;;;19.20;98.20;;;18.84;63.81;100012.25;5093756;28;20266;-74
2023/08/30 10:23:57;;;;;;;9.80;8.80;;;19.30;98.30;;;18.81;66.32;100010.03;5093089;28;20225;-74
2023/08/30 10:26:33;;;;;;;12.27;10.83;;;19.30;99.10;;;18.79;63.83;100007.56;5093468;28;20275;-74
2023/08/30 10:29:09;;;;;;;12.90;11.13;;;19.20;97.70;;;18.79;64.25;100002.13;5093525;28;20207;-74
2023/08/30 10:31:43;;;;;;;11.47;9.70;;;19.20;98.00;;;18.79;64.79;100002.13;5093477;28;20231;-74
2023/08/30 10:34:21;;;;;;;13.47;11.60;;;19.20;98.50;;;18.83;64.06;100011.47;5093387;28;20273;-74
2023/08/30 10:37:02;;;;;;;14.80;12.50;;;19.30;98.00;;;18.77;62.70;100009.66;5093339;28;20220;-74